sensor_id;sensor_type;location;lat;lon;timestamp;P1;durP1;ratioP1;P2;durP2;ratioP2
66272;SDS011;58450;52.150;4.466;2023-09-30T00:00:21;7.53;;;3.25;;
66272;SDS011;58450;52.150;4.466;2023-09-30T00:02:51;7.18;;;3.53;;
66272;SDS011;58450;52.150;4.466;2023-09-30T00:05:18;5.85;;;2.97;;
66272;SDS011;58450;52.150;4.466;2023-09-30T00:07:46;5.85;;;2.80;;
66272;SDS011;58450;52.150;4.466;2023-09-30T00:10:14;6.57;;;2.92;;
66272;SDS011;58450;52.150;4.466;2023-09-30T00:12:41;7.57;;;3.38;;
66272;SDS011;58450;52.150;4.466;2023-09-30T00:15:10;7.88;;;2.90;;
66272;SDS011;58450;52.150;4.466;2023-09-30T00:17:37;7.20;;;3.10;;
66272;SDS011;58450;52.150;4.466;2023-09-30T00:20:07;6.60;;;2.88;;
66272;SDS011;58450;52.150;4.466;2023-09-30T00:22:36;7.88;;;3.22;;
66272;SDS011;58450;52.150;4.466;2023-09-30T00:25:04;7.68;;;3.20;;
66272;SDS011;58450;52.150;4.466;2023-09-30T00:27:33;8.43;;;2.95;;
66272;SDS011;58450;52.150;4.466;2023-09-30T00:30:00;7.40;;;3.00;;
66272;SDS011;58450;52.150;4.466;2023-09-30T00:32:28;7.88;;;3.25;;
66272;SDS011;58450;52.150;4.466;2023-09-30T00:34:56;7.85;;;3.42;;
66272;SDS011;58450;52.150;4.466;2023-09-30T00:37:25;6.97;;;3.03;;
66272;SDS011;58450;52.150;4.466;2023-09-30T00:39:53;7.03;;;3.17;;
66272;SDS011;58450;52.150;4.466;2023-09-30T00:42:21;7.20;;;3.10;;
66272;SDS011;58450;52.150;4.466;2023-09-30T00:44:48;7.20;;;3.47;;
66272;SDS011;58450;52.150;4.466;2023-09-30T00:47:16;8.18;;;2.97;;
66272;SDS011;58450;52.150;4.466;2023-09-30T00:49:46;6.97;;;3.20;;
66272;SDS011;58450;52.150;4.466;2023-09-30T00:52:13;6.93;;;3.10;;
66272;SDS011;58450;52.150;4.466;2023-09-30T00:54:42;6.30;;;3.03;;
66272;SDS011;58450;52.150;4.466;2023-09-30T00:57:12;5.63;;;2.95;;
66272;SDS011;58450;52.150;4.466;2023-09-30T00:59:40;7.03;;;3.03;;
66272;SDS011;58450;52.150;4.466;2023-09-30T01:02:08;7.10;;;3.30;;
66272;SDS011;58450;52.150;4.466;2023-09-30T01:04:35;5.55;;;2.85;;
66272;SDS011;58450;52.150;4.466;2023-09-30T01:07:04;6.30;;;3.20;;
66272;SDS011;58450;52.150;4.466;2023-09-30T01:09:32;8.77;;;3.53;;
66272;SDS011;58450;52.150;4.466;2023-09-30T01:12:03;9.45;;;3.22;;
66272;SDS011;58450;52.150;4.466;2023-09-30T01:14:33;8.35;;;3.13;;
66272;SDS011;58450;52.150;4.466;2023-09-30T01:17:03;6.68;;;3.20;;
66272;SDS011;58450;52.150;4.466;2023-09-30T01:19:34;7.10;;;2.90;;
66272;SDS011;58450;52.150;4.466;2023-09-30T01:22:03;8.23;;;3.05;;
66272;SDS011;58450;52.150;4.466;2023-09-30T01:24:37;7.53;;;2.90;;
66272;SDS011;58450;52.150;4.466;2023-09-30T01:27:07;7.70;;;3.30;;
66272;SDS011;58450;52.150;4.466;2023-09-30T01:29:34;7.30;;;3.00;;
66272;SDS011;58450;52.150;4.466;2023-09-30T01:32:04;5.85;;;2.90;;
66272;SDS011;58450;52.150;4.466;2023-09-30T01:34:33;6.18;;;2.70;;
66272;SDS011;58450;52.150;4.466;2023-09-30T01:37:01;9.02;;;3.58;;
66272;SDS011;58450;52.150;4.466;2023-09-30T01:39:31;9.57;;;2.95;;
66272;SDS011;58450;52.150;4.466;2023-09-30T01:41:59;6.18;;;2.92;;
66272;SDS011;58450;52.150;4.466;2023-09-30T01:44:27;8.95;;;3.50;;
66272;SDS011;58450;52.150;4.466;2023-09-30T01:46:55;7.30;;;3.10;;
66272;SDS011;58450;52.150;4.466;2023-09-30T01:49:22;6.95;;;3.30;;
66272;SDS011;58450;52.150;4.466;2023-09-30T01:51:52;5.95;;;3.08;;
66272;SDS011;58450;52.150;4.466;2023-09-30T01:54:21;9.27;;;3.40;;
66272;SDS011;58450;52.150;4.466;2023-09-30T01:56:48;6.88;;;3.40;;
66272;SDS011;58450;52.150;4.466;2023-09-30T01:59:16;8.95;;;3.10;;
66272;SDS011;58450;52.150;4.466;2023-09-30T02:01:44;9.13;;;3.40;;
66272;SDS011;58450;52.150;4.466;2023-09-30T02:04:13;7.65;;;3.00;;
66272;SDS011;58450;52.150;4.466;2023-09-30T02:06:41;6.00;;;2.95;;
66272;SDS011;58450;52.150;4.466;2023-09-30T02:09:08;7.07;;;3.05;;
66272;SDS011;58450;52.150;4.466;2023-09-30T02:11:37;6.28;;;2.92;;
66272;SDS011;58450;52.150;4.466;2023-09-30T02:14:07;7.32;;;3.28;;
66272;SDS011;58450;52.150;4.466;2023-09-30T02:16:34;7.05;;;3.40;;
66272;SDS011;58450;52.150;4.466;2023-09-30T02:19:03;7.10;;;3.10;;
66272;SDS011;58450;52.150;4.466;2023-09-30T02:21:30;8.15;;;3.38;;
66272;SDS011;58450;52.150;4.466;2023-09-30T02:23:58;6.03;;;2.83;;
66272;SDS011;58450;52.150;4.466;2023-09-30T02:26:25;7.07;;;3.20;;
66272;SDS011;58450;52.150;4.466;2023-09-30T02:28:56;5.43;;;2.53;;
66272;SDS011;58450;52.150;4.466;2023-09-30T02:31:24;8.38;;;2.88;;
66272;SDS011;58450;52.150;4.466;2023-09-30T02:33:51;7.13;;;3.05;;
66272;SDS011;58450;52.150;4.466;2023-09-30T02:36:19;6.93;;;3.13;;
66272;SDS011;58450;52.150;4.466;2023-09-30T02:38:46;6.90;;;3.03;;
66272;SDS011;58450;52.150;4.466;2023-09-30T02:41:15;7.25;;;2.90;;
66272;SDS011;58450;52.150;4.466;2023-09-30T02:43:43;6.70;;;2.95;;
66272;SDS011;58450;52.150;4.466;2023-09-30T02:46:13;7.18;;;3.20;;
66272;SDS011;58450;52.150;4.466;2023-09-30T02:48:41;7.22;;;3.08;;
66272;SDS011;58450;52.150;4.466;2023-09-30T02:51:09;6.97;;;3.30;;
66272;SDS011;58450;52.150;4.466;2023-09-30T02:53:37;6.95;;;3.47;;
66272;SDS011;58450;52.150;4.466;2023-09-30T02:56:05;7.95;;;3.42;;
66272;SDS011;58450;52.150;4.466;2023-09-30T02:58:33;7.68;;;3.08;;
66272;SDS011;58450;52.150;4.466;2023-09-30T03:01:01;6.25;;;2.80;;
66272;SDS011;58450;52.150;4.466;2023-09-30T03:03:30;6.85;;;2.95;;
66272;SDS011;58450;52.150;4.466;2023-09-30T03:05:59;5.72;;;3.00;;
66272;SDS011;58450;52.150;4.466;2023-09-30T03:08:27;6.50;;;2.90;;
66272;SDS011;58450;52.150;4.466;2023-09-30T03:10:55;7.53;;;3.47;;
66272;SDS011;58450;52.150;4.466;2023-09-30T03:13:24;6.88;;;3.50;;
66272;SDS011;58450;52.150;4.466;2023-09-30T03:15:52;8.32;;;3.38;;
66272;SDS011;58450;52.150;4.466;2023-09-30T03:18:22;6.78;;;2.88;;
66272;SDS011;58450;52.150;4.466;2023-09-30T03:20:58;7.57;;;3.47;;
66272;SDS011;58450;52.150;4.466;2023-09-30T03:23:28;7.65;;;3.65;;
66272;SDS011;58450;52.150;4.466;2023-09-30T03:25:56;6.90;;;3.15;;
66272;SDS011;58450;52.150;4.466;2023-09-30T03:28:24;7.05;;;3.30;;
66272;SDS011;58450;52.150;4.466;2023-09-30T03:30:52;7.05;;;3.55;;
66272;SDS011;58450;52.150;4.466;2023-09-30T03:33:19;8.30;;;3.63;;
66272;SDS011;58450;52.150;4.466;2023-09-30T03:35:47;9.68;;;4.00;;
66272;SDS011;58450;52.150;4.466;2023-09-30T03:38:16;7.22;;;3.65;;
66272;SDS011;58450;52.150;4.466;2023-09-30T03:40:45;7.93;;;3.55;;
66272;SDS011;58450;52.150;4.466;2023-09-30T03:43:13;8.52;;;3.47;;
66272;SDS011;58450;52.150;4.466;2023-09-30T03:45:41;7.50;;;3.40;;
66272;SDS011;58450;52.150;4.466;2023-09-30T03:48:09;9.73;;;3.90;;
66272;SDS011;58450;52.150;4.466;2023-09-30T03:50:37;11.57;;;4.60;;
66272;SDS011;58450;52.150;4.466;2023-09-30T03:53:05;8.73;;;4.00;;
66272;SDS011;58450;52.150;4.466;2023-09-30T03:55:35;7.68;;;3.78;;
66272;SDS011;58450;52.150;4.466;2023-09-30T03:58:04;8.10;;;3.95;;
66272;SDS011;58450;52.150;4.466;2023-09-30T04:00:31;8.50;;;3.78;;
66272;SDS011;58450;52.150;4.466;2023-09-30T04:02:59;8.80;;;4.10;;
66272;SDS011;58450;52.150;4.466;2023-09-30T04:05:28;7.22;;;3.60;;
66272;SDS011;58450;52.150;4.466;2023-09-30T04:07:57;8.50;;;4.40;;
66272;SDS011;58450;52.150;4.466;2023-09-30T04:10:25;8.82;;;4.22;;
66272;SDS011;58450;52.150;4.466;2023-09-30T04:12:54;8.65;;;4.07;;
66272;SDS011;58450;52.150;4.466;2023-09-30T04:15:22;9.90;;;4.65;;
66272;SDS011;58450;52.150;4.466;2023-09-30T04:17:50;8.98;;;4.13;;
66272;SDS011;58450;52.150;4.466;2023-09-30T04:20:18;9.07;;;4.30;;
66272;SDS011;58450;52.150;4.466;2023-09-30T04:22:49;12.88;;;5.20;;
66272;SDS011;58450;52.150;4.466;2023-09-30T04:25:17;10.30;;;5.38;;
66272;SDS011;58450;52.150;4.466;2023-09-30T04:27:46;10.18;;;5.03;;
66272;SDS011;58450;52.150;4.466;2023-09-30T04:30:16;10.82;;;5.30;;
66272;SDS011;58450;52.150;4.466;2023-09-30T04:32:44;8.80;;;5.10;;
66272;SDS011;58450;52.150;4.466;2023-09-30T04:35:12;10.18;;;4.82;;
66272;SDS011;58450;52.150;4.466;2023-09-30T04:37:40;10.70;;;4.28;;
66272;SDS011;58450;52.150;4.466;2023-09-30T04:40:09;10.57;;;4.57;;
66272;SDS011;58450;52.150;4.466;2023-09-30T04:42:41;9.35;;;4.75;;
66272;SDS011;58450;52.150;4.466;2023-09-30T04:45:10;11.32;;;5.40;;
66272;SDS011;58450;52.150;4.466;2023-09-30T04:47:40;10.95;;;5.22;;
66272;SDS011;58450;52.150;4.466;2023-09-30T04:50:07;13.23;;;5.82;;
66272;SDS011;58450;52.150;4.466;2023-09-30T04:52:37;11.13;;;5.63;;
66272;SDS011;58450;52.150;4.466;2023-09-30T04:55:06;11.18;;;5.47;;
66272;SDS011;58450;52.150;4.466;2023-09-30T04:57:34;10.65;;;4.82;;
66272;SDS011;58450;52.150;4.466;2023-09-30T05:00:02;9.13;;;4.75;;
66272;SDS011;58450;52.150;4.466;2023-09-30T05:02:36;11.15;;;4.90;;
66272;SDS011;58450;52.150;4.466;2023-09-30T05:05:06;10.63;;;4.90;;
66272;SDS011;58450;52.150;4.466;2023-09-30T05:07:35;9.60;;;4.80;;
66272;SDS011;58450;52.150;4.466;2023-09-30T05:10:02;10.75;;;4.88;;
66272;SDS011;58450;52.150;4.466;2023-09-30T05:12:36;8.50;;;4.38;;
66272;SDS011;58450;52.150;4.466;2023-09-30T05:15:04;10.52;;;5.03;;
66272;SDS011;58450;52.150;4.466;2023-09-30T05:17:33;9.18;;;4.93;;
66272;SDS011;58450;52.150;4.466;2023-09-30T05:20:01;13.35;;;5.30;;
66272;SDS011;58450;52.150;4.466;2023-09-30T05:22:34;8.98;;;4.65;;
66272;SDS011;58450;52.150;4.466;2023-09-30T05:25:01;9.07;;;4.80;;
66272;SDS011;58450;52.150;4.466;2023-09-30T05:27:29;7.22;;;4.20;;
66272;SDS011;58450;52.150;4.466;2023-09-30T05:29:58;10.10;;;4.60;;
66272;SDS011;58450;52.150;4.466;2023-09-30T05:32:25;10.05;;;5.00;;
66272;SDS011;58450;52.150;4.466;2023-09-30T05:34:53;9.98;;;5.22;;
66272;SDS011;58450;52.150;4.466;2023-09-30T05:37:21;11.77;;;5.05;;
66272;SDS011;58450;52.150;4.466;2023-09-30T05:39:50;10.80;;;5.03;;
66272;SDS011;58450;52.150;4.466;2023-09-30T05:42:17;9.23;;;4.68;;
66272;SDS011;58450;52.150;4.466;2023-09-30T05:44:45;9.07;;;4.82;;
66272;SDS011;58450;52.150;4.466;2023-09-30T05:47:14;10.52;;;5.18;;
66272;SDS011;58450;52.150;4.466;2023-09-30T05:49:42;8.55;;;4.88;;
66272;SDS011;58450;52.150;4.466;2023-09-30T05:52:09;8.45;;;4.55;;
66272;SDS011;58450;52.150;4.466;2023-09-30T05:54:38;14.52;;;5.72;;
66272;SDS011;58450;52.150;4.466;2023-09-30T05:57:07;10.80;;;5.38;;
66272;SDS011;58450;52.150;4.466;2023-09-30T05:59:35;10.30;;;4.72;;
66272;SDS011;58450;52.150;4.466;2023-09-30T06:02:03;9.18;;;4.97;;
66272;SDS011;58450;52.150;4.466;2023-09-30T06:04:31;9.32;;;5.20;;
66272;SDS011;58450;52.150;4.466;2023-09-30T06:06:59;10.00;;;5.70;;
66272;SDS011;58450;52.150;4.466;2023-09-30T06:09:26;12.20;;;5.65;;
66272;SDS011;58450;52.150;4.466;2023-09-30T06:11:56;12.32;;;5.65;;
66272;SDS011;58450;52.150;4.466;2023-09-30T06:14:26;10.75;;;5.63;;
66272;SDS011;58450;52.150;4.466;2023-09-30T06:16:56;11.15;;;6.07;;
66272;SDS011;58450;52.150;4.466;2023-09-30T06:19:24;11.45;;;5.70;;
66272;SDS011;58450;52.150;4.466;2023-09-30T06:21:51;13.18;;;6.18;;
66272;SDS011;58450;52.150;4.466;2023-09-30T06:24:19;13.27;;;5.95;;
66272;SDS011;58450;52.150;4.466;2023-09-30T06:26:46;12.13;;;5.72;;
66272;SDS011;58450;52.150;4.466;2023-09-30T06:29:15;11.65;;;6.25;;
66272;SDS011;58450;52.150;4.466;2023-09-30T06:31:44;12.68;;;6.57;;
66272;SDS011;58450;52.150;4.466;2023-09-30T06:34:12;11.40;;;5.55;;
66272;SDS011;58450;52.150;4.466;2023-09-30T06:36:39;10.98;;;5.80;;
66272;SDS011;58450;52.150;4.466;2023-09-30T06:39:07;12.70;;;6.45;;
66272;SDS011;58450;52.150;4.466;2023-09-30T06:41:36;9.77;;;5.60;;
66272;SDS011;58450;52.150;4.466;2023-09-30T06:44:05;10.55;;;5.80;;
66272;SDS011;58450;52.150;4.466;2023-09-30T06:46:32;10.68;;;5.63;;
66272;SDS011;58450;52.150;4.466;2023-09-30T06:49:01;11.38;;;5.97;;
66272;SDS011;58450;52.150;4.466;2023-09-30T06:51:29;9.77;;;5.85;;
66272;SDS011;58450;52.150;4.466;2023-09-30T06:53:56;10.10;;;6.03;;
66272;SDS011;58450;52.150;4.466;2023-09-30T06:56:24;10.98;;;6.05;;
66272;SDS011;58450;52.150;4.466;2023-09-30T06:58:52;15.57;;;7.88;;
66272;SDS011;58450;52.150;4.466;2023-09-30T07:01:20;13.32;;;7.30;;
66272;SDS011;58450;52.150;4.466;2023-09-30T07:03:47;13.20;;;7.03;;
66272;SDS011;58450;52.150;4.466;2023-09-30T07:06:22;12.27;;;6.90;;
66272;SDS011;58450;52.150;4.466;2023-09-30T07:08:50;12.85;;;6.82;;
66272;SDS011;58450;52.150;4.466;2023-09-30T07:11:26;12.77;;;7.50;;
66272;SDS011;58450;52.150;4.466;2023-09-30T07:13:55;19.02;;;10.48;;
66272;SDS011;58450;52.150;4.466;2023-09-30T07:16:23;16.27;;;9.73;;
66272;SDS011;58450;52.150;4.466;2023-09-30T07:18:51;18.70;;;9.50;;
66272;SDS011;58450;52.150;4.466;2023-09-30T07:21:18;14.38;;;8.13;;
66272;SDS011;58450;52.150;4.466;2023-09-30T07:23:48;16.02;;;8.88;;
66272;SDS011;58450;52.150;4.466;2023-09-30T07:26:15;14.90;;;8.27;;
66272;SDS011;58450;52.150;4.466;2023-09-30T07:28:43;15.90;;;8.52;;
66272;SDS011;58450;52.150;4.466;2023-09-30T07:31:10;12.82;;;7.80;;
66272;SDS011;58450;52.150;4.466;2023-09-30T07:33:39;13.10;;;7.32;;
66272;SDS011;58450;52.150;4.466;2023-09-30T07:36:07;12.07;;;7.40;;
66272;SDS011;58450;52.150;4.466;2023-09-30T07:38:34;14.27;;;7.78;;
66272;SDS011;58450;52.150;4.466;2023-09-30T07:41:03;14.23;;;7.93;;
66272;SDS011;58450;52.150;4.466;2023-09-30T07:43:31;13.35;;;7.47;;
66272;SDS011;58450;52.150;4.466;2023-09-30T07:45:59;12.82;;;6.80;;
66272;SDS011;58450;52.150;4.466;2023-09-30T07:48:33;12.93;;;6.82;;
66272;SDS011;58450;52.150;4.466;2023-09-30T07:51:01;16.38;;;8.30;;
66272;SDS011;58450;52.150;4.466;2023-09-30T07:53:30;13.70;;;7.80;;
66272;SDS011;58450;52.150;4.466;2023-09-30T07:55:57;14.52;;;8.95;;
66272;SDS011;58450;52.150;4.466;2023-09-30T07:58:26;15.25;;;7.63;;
66272;SDS011;58450;52.150;4.466;2023-09-30T08:00:54;13.80;;;7.70;;
66272;SDS011;58450;52.150;4.466;2023-09-30T08:03:21;14.82;;;7.50;;
66272;SDS011;58450;52.150;4.466;2023-09-30T08:05:49;13.40;;;6.68;;
66272;SDS011;58450;52.150;4.466;2023-09-30T08:08:18;13.23;;;6.47;;
66272;SDS011;58450;52.150;4.466;2023-09-30T08:10:45;12.07;;;5.60;;
66272;SDS011;58450;52.150;4.466;2023-09-30T08:13:13;13.60;;;5.80;;
66272;SDS011;58450;52.150;4.466;2023-09-30T08:15:42;10.95;;;5.15;;
66272;SDS011;58450;52.150;4.466;2023-09-30T08:18:10;10.57;;;4.85;;
66272;SDS011;58450;52.150;4.466;2023-09-30T08:20:37;8.88;;;4.53;;
66272;SDS011;58450;52.150;4.466;2023-09-30T08:23:05;9.13;;;4.80;;
66272;SDS011;58450;52.150;4.466;2023-09-30T08:25:32;9.05;;;5.00;;
66272;SDS011;58450;52.150;4.466;2023-09-30T08:28:00;13.15;;;5.25;;
66272;SDS011;58450;52.150;4.466;2023-09-30T08:30:27;9.93;;;4.65;;
66272;SDS011;58450;52.150;4.466;2023-09-30T08:32:56;11.70;;;5.72;;
66272;SDS011;58450;52.150;4.466;2023-09-30T08:35:24;11.80;;;5.43;;
66272;SDS011;58450;52.150;4.466;2023-09-30T08:37:52;9.63;;;4.95;;
66272;SDS011;58450;52.150;4.466;2023-09-30T08:40:19;11.98;;;4.88;;
66272;SDS011;58450;52.150;4.466;2023-09-30T08:42:48;11.75;;;5.13;;
66272;SDS011;58450;52.150;4.466;2023-09-30T08:45:19;10.10;;;4.97;;
66272;SDS011;58450;52.150;4.466;2023-09-30T08:47:47;14.93;;;5.65;;
66272;SDS011;58450;52.150;4.466;2023-09-30T08:50:16;12.77;;;5.13;;
66272;SDS011;58450;52.150;4.466;2023-09-30T08:52:44;14.15;;;5.95;;
66272;SDS011;58450;52.150;4.466;2023-09-30T08:55:12;12.27;;;5.13;;
66272;SDS011;58450;52.150;4.466;2023-09-30T08:57:40;12.95;;;5.82;;
66272;SDS011;58450;52.150;4.466;2023-09-30T09:00:09;11.35;;;4.97;;
66272;SDS011;58450;52.150;4.466;2023-09-30T09:02:39;11.75;;;5.38;;
66272;SDS011;58450;52.150;4.466;2023-09-30T09:05:08;10.02;;;5.00;;
66272;SDS011;58450;52.150;4.466;2023-09-30T09:07:38;11.43;;;5.38;;
66272;SDS011;58450;52.150;4.466;2023-09-30T09:10:06;11.13;;;5.30;;
66272;SDS011;58450;52.150;4.466;2023-09-30T09:12:36;12.88;;;5.57;;
66272;SDS011;58450;52.150;4.466;2023-09-30T09:15:06;12.70;;;5.30;;
66272;SDS011;58450;52.150;4.466;2023-09-30T09:17:42;10.35;;;4.75;;
66272;SDS011;58450;52.150;4.466;2023-09-30T09:20:11;8.88;;;4.25;;
66272;SDS011;58450;52.150;4.466;2023-09-30T09:22:47;9.85;;;3.45;;
66272;SDS011;58450;52.150;4.466;2023-09-30T09:25:19;10.23;;;4.22;;
66272;SDS011;58450;52.150;4.466;2023-09-30T09:27:48;10.20;;;4.18;;
66272;SDS011;58450;52.150;4.466;2023-09-30T09:30:17;11.10;;;4.57;;
66272;SDS011;58450;52.150;4.466;2023-09-30T09:32:53;13.23;;;4.93;;
66272;SDS011;58450;52.150;4.466;2023-09-30T09:35:25;10.95;;;4.35;;
66272;SDS011;58450;52.150;4.466;2023-09-30T09:37:56;11.80;;;4.10;;
66272;SDS011;58450;52.150;4.466;2023-09-30T09:40:26;8.23;;;3.30;;
66272;SDS011;58450;52.150;4.466;2023-09-30T09:42:56;9.00;;;3.75;;
66272;SDS011;58450;52.150;4.466;2023-09-30T09:45:26;9.55;;;3.00;;
66272;SDS011;58450;52.150;4.466;2023-09-30T09:47:58;6.53;;;2.43;;
66272;SDS011;58450;52.150;4.466;2023-09-30T09:50:26;8.35;;;3.08;;
66272;SDS011;58450;52.150;4.466;2023-09-30T09:52:56;9.80;;;2.60;;
66272;SDS011;58450;52.150;4.466;2023-09-30T09:55:25;6.25;;;2.30;;
66272;SDS011;58450;52.150;4.466;2023-09-30T09:57:54;6.60;;;1.80;;
66272;SDS011;58450;52.150;4.466;2023-09-30T10:00:25;5.88;;;1.73;;
66272;SDS011;58450;52.150;4.466;2023-09-30T10:02:55;7.88;;;2.10;;
66272;SDS011;58450;52.150;4.466;2023-09-30T10:05:23;6.70;;;1.92;;
66272;SDS011;58450;52.150;4.466;2023-09-30T10:07:51;5.55;;;1.88;;
66272;SDS011;58450;52.150;4.466;2023-09-30T10:10:24;7.07;;;2.17;;
66272;SDS011;58450;52.150;4.466;2023-09-30T10:12:54;4.78;;;1.60;;
66272;SDS011;58450;52.150;4.466;2023-09-30T10:15:39;8.30;;;1.85;;
66272;SDS011;58450;52.150;4.466;2023-09-30T10:18:07;5.30;;;1.67;;
66272;SDS011;58450;52.150;4.466;2023-09-30T10:20:37;6.95;;;1.75;;
66272;SDS011;58450;52.150;4.466;2023-09-30T10:23:19;9.10;;;1.98;;
66272;SDS011;58450;52.150;4.466;2023-09-30T10:25:52;6.20;;;1.67;;
66272;SDS011;58450;52.150;4.466;2023-09-30T10:28:33;6.25;;;1.88;;
66272;SDS011;58450;52.150;4.466;2023-09-30T10:31:08;5.28;;;1.48;;
66272;SDS011;58450;52.150;4.466;2023-09-30T10:36:48;5.03;;;1.67;;
66272;SDS011;58450;52.150;4.466;2023-09-30T10:45:41;5.80;;;1.60;;
66272;SDS011;58450;52.150;4.466;2023-09-30T10:51:14;8.45;;;1.75;;
66272;SDS011;58450;52.150;4.466;2023-09-30T10:57:02;7.45;;;1.92;;
66272;SDS011;58450;52.150;4.466;2023-09-30T10:59:31;7.72;;;1.70;;
66272;SDS011;58450;52.150;4.466;2023-09-30T11:02:00;8.20;;;2.25;;
66272;SDS011;58450;52.150;4.466;2023-09-30T11:04:28;6.38;;;1.95;;
66272;SDS011;58450;52.150;4.466;2023-09-30T11:06:56;10.57;;;2.20;;
66272;SDS011;58450;52.150;4.466;2023-09-30T11:09:28;6.72;;;1.67;;
66272;SDS011;58450;52.150;4.466;2023-09-30T11:11:55;4.40;;;1.38;;
66272;SDS011;58450;52.150;4.466;2023-09-30T11:14:23;7.97;;;2.30;;
66272;SDS011;58450;52.150;4.466;2023-09-30T11:16:56;6.35;;;1.80;;
66272;SDS011;58450;52.150;4.466;2023-09-30T11:19:27;8.43;;;1.90;;
66272;SDS011;58450;52.150;4.466;2023-09-30T11:22:01;8.35;;;2.13;;
66272;SDS011;58450;52.150;4.466;2023-09-30T11:24:29;10.10;;;2.60;;
66272;SDS011;58450;52.150;4.466;2023-09-30T11:26:59;8.45;;;2.20;;
66272;SDS011;58450;52.150;4.466;2023-09-30T11:29:27;8.82;;;2.33;;
66272;SDS011;58450;52.150;4.466;2023-09-30T11:31:56;9.93;;;2.03;;
66272;SDS011;58450;52.150;4.466;2023-09-30T11:34:30;6.05;;;1.83;;
66272;SDS011;58450;52.150;4.466;2023-09-30T11:37:00;8.80;;;2.05;;
66272;SDS011;58450;52.150;4.466;2023-09-30T11:39:29;7.15;;;1.90;;
66272;SDS011;58450;52.150;4.466;2023-09-30T11:41:57;8.48;;;2.00;;
66272;SDS011;58450;52.150;4.466;2023-09-30T11:44:26;7.10;;;1.90;;
66272;SDS011;58450;52.150;4.466;2023-09-30T11:46:58;6.20;;;2.17;;
66272;SDS011;58450;52.150;4.466;2023-09-30T11:49:30;7.43;;;2.05;;
66272;SDS011;58450;52.150;4.466;2023-09-30T11:52:02;7.35;;;1.80;;
66272;SDS011;58450;52.150;4.466;2023-09-30T11:54:34;7.43;;;2.22;;
66272;SDS011;58450;52.150;4.466;2023-09-30T11:57:07;7.50;;;2.33;;
66272;SDS011;58450;52.150;4.466;2023-09-30T11:59:36;7.28;;;2.15;;
66272;SDS011;58450;52.150;4.466;2023-09-30T12:02:08;5.43;;;1.70;;
66272;SDS011;58450;52.150;4.466;2023-09-30T12:04:36;7.78;;;2.22;;
66272;SDS011;58450;52.150;4.466;2023-09-30T12:07:04;8.32;;;2.08;;
66272;SDS011;58450;52.150;4.466;2023-09-30T12:09:32;7.45;;;1.95;;
66272;SDS011;58450;52.150;4.466;2023-09-30T12:12:03;6.68;;;2.10;;
66272;SDS011;58450;52.150;4.466;2023-09-30T12:14:34;7.13;;;1.95;;
66272;SDS011;58450;52.150;4.466;2023-09-30T12:17:02;6.40;;;1.80;;
66272;SDS011;58450;52.150;4.466;2023-09-30T12:19:31;7.85;;;2.30;;
66272;SDS011;58450;52.150;4.466;2023-09-30T12:21:58;6.63;;;1.95;;
66272;SDS011;58450;52.150;4.466;2023-09-30T12:24:26;7.05;;;2.20;;
66272;SDS011;58450;52.150;4.466;2023-09-30T12:26:53;7.60;;;2.42;;
66272;SDS011;58450;52.150;4.466;2023-09-30T12:29:21;5.88;;;1.70;;
66272;SDS011;58450;52.150;4.466;2023-09-30T12:31:50;7.00;;;2.00;;
66272;SDS011;58450;52.150;4.466;2023-09-30T12:34:18;8.45;;;2.67;;
66272;SDS011;58450;52.150;4.466;2023-09-30T12:36:50;6.40;;;1.98;;
66272;SDS011;58450;52.150;4.466;2023-09-30T12:39:17;6.85;;;1.88;;
66272;SDS011;58450;52.150;4.466;2023-09-30T12:41:49;7.68;;;2.33;;
66272;SDS011;58450;52.150;4.466;2023-09-30T12:44:17;6.20;;;2.03;;
66272;SDS011;58450;52.150;4.466;2023-09-30T12:46:44;8.55;;;2.17;;
66272;SDS011;58450;52.150;4.466;2023-09-30T12:49:12;7.22;;;2.10;;
66272;SDS011;58450;52.150;4.466;2023-09-30T12:51:39;7.80;;;1.95;;
66272;SDS011;58450;52.150;4.466;2023-09-30T12:54:08;9.88;;;2.33;;
66272;SDS011;58450;52.150;4.466;2023-09-30T12:56:38;6.72;;;2.30;;
66272;SDS011;58450;52.150;4.466;2023-09-30T12:59:05;6.68;;;2.17;;
66272;SDS011;58450;52.150;4.466;2023-09-30T13:01:33;7.80;;;2.17;;
66272;SDS011;58450;52.150;4.466;2023-09-30T13:04:00;7.45;;;2.40;;
66272;SDS011;58450;52.150;4.466;2023-09-30T13:06:28;9.15;;;2.25;;
66272;SDS011;58450;52.150;4.466;2023-09-30T13:08:58;8.73;;;2.38;;
66272;SDS011;58450;52.150;4.466;2023-09-30T13:11:27;10.43;;;2.20;;
66272;SDS011;58450;52.150;4.466;2023-09-30T13:13:54;8.50;;;2.05;;
66272;SDS011;58450;52.150;4.466;2023-09-30T13:16:22;6.80;;;1.80;;
66272;SDS011;58450;52.150;4.466;2023-09-30T13:18:49;7.50;;;2.15;;
66272;SDS011;58450;52.150;4.466;2023-09-30T13:21:18;8.98;;;1.85;;
66272;SDS011;58450;52.150;4.466;2023-09-30T13:23:46;7.68;;;2.17;;
66272;SDS011;58450;52.150;4.466;2023-09-30T13:26:13;5.90;;;1.90;;
66272;SDS011;58450;52.150;4.466;2023-09-30T13:28:42;9.40;;;2.08;;
66272;SDS011;58450;52.150;4.466;2023-09-30T13:31:10;9.25;;;2.17;;
66272;SDS011;58450;52.150;4.466;2023-09-30T13:33:37;6.97;;;1.77;;
66272;SDS011;58450;52.150;4.466;2023-09-30T13:36:05;9.30;;;2.25;;
66272;SDS011;58450;52.150;4.466;2023-09-30T13:38:32;8.40;;;2.20;;
66272;SDS011;58450;52.150;4.466;2023-09-30T13:41:00;10.13;;;2.00;;
66272;SDS011;58450;52.150;4.466;2023-09-30T13:43:28;8.50;;;2.03;;
66272;SDS011;58450;52.150;4.466;2023-09-30T13:45:57;8.65;;;2.00;;
66272;SDS011;58450;52.150;4.466;2023-09-30T13:48:25;8.57;;;2.20;;
66272;SDS011;58450;52.150;4.466;2023-09-30T13:50:52;7.93;;;2.00;;
66272;SDS011;58450;52.150;4.466;2023-09-30T13:53:19;7.88;;;2.13;;
66272;SDS011;58450;52.150;4.466;2023-09-30T13:55:47;5.63;;;2.00;;
66272;SDS011;58450;52.150;4.466;2023-09-30T13:58:15;6.55;;;1.73;;
66272;SDS011;58450;52.150;4.466;2023-09-30T14:00:46;6.55;;;1.80;;
66272;SDS011;58450;52.150;4.466;2023-09-30T14:03:15;5.55;;;1.40;;
66272;SDS011;58450;52.150;4.466;2023-09-30T14:05:44;6.47;;;1.67;;
66272;SDS011;58450;52.150;4.466;2023-09-30T14:08:12;9.90;;;1.80;;
66272;SDS011;58450;52.150;4.466;2023-09-30T14:10:40;7.25;;;1.77;;
66272;SDS011;58450;52.150;4.466;2023-09-30T14:13:07;5.63;;;1.50;;
66272;SDS011;58450;52.150;4.466;2023-09-30T14:15:35;6.43;;;1.67;;
66272;SDS011;58450;52.150;4.466;2023-09-30T14:18:03;6.68;;;1.77;;
66272;SDS011;58450;52.150;4.466;2023-09-30T14:20:33;6.43;;;1.60;;
66272;SDS011;58450;52.150;4.466;2023-09-30T14:23:01;3.92;;;1.27;;
66272;SDS011;58450;52.150;4.466;2023-09-30T14:25:29;9.23;;;1.83;;
66272;SDS011;58450;52.150;4.466;2023-09-30T14:27:57;7.70;;;2.38;;
66272;SDS011;58450;52.150;4.466;2023-09-30T14:30:25;7.30;;;1.63;;
66272;SDS011;58450;52.150;4.466;2023-09-30T14:32:54;6.93;;;1.60;;
66272;SDS011;58450;52.150;4.466;2023-09-30T14:35:22;7.78;;;1.60;;
66272;SDS011;58450;52.150;4.466;2023-09-30T14:37:50;8.70;;;1.85;;
66272;SDS011;58450;52.150;4.466;2023-09-30T14:40:20;5.10;;;1.30;;
66272;SDS011;58450;52.150;4.466;2023-09-30T14:42:47;6.20;;;1.52;;
66272;SDS011;58450;52.150;4.466;2023-09-30T14:45:15;6.78;;;1.55;;
66272;SDS011;58450;52.150;4.466;2023-09-30T14:47:42;5.53;;;1.40;;
66272;SDS011;58450;52.150;4.466;2023-09-30T14:50:10;5.80;;;1.27;;
66272;SDS011;58450;52.150;4.466;2023-09-30T14:52:37;7.88;;;1.67;;
66272;SDS011;58450;52.150;4.466;2023-09-30T14:55:07;8.63;;;2.08;;
66272;SDS011;58450;52.150;4.466;2023-09-30T14:57:35;6.43;;;1.70;;
66272;SDS011;58450;52.150;4.466;2023-09-30T15:00:03;7.85;;;1.83;;
66272;SDS011;58450;52.150;4.466;2023-09-30T15:02:32;6.90;;;1.67;;
66272;SDS011;58450;52.150;4.466;2023-09-30T15:05:00;8.43;;;1.60;;
66272;SDS011;58450;52.150;4.466;2023-09-30T15:07:27;7.88;;;1.60;;